createdAt,value
2022-11-13T00:02:26.872Z,102841.38
2022-11-13T00:04:54.224Z,102845.81
2022-11-13T00:07:21.305Z,102856.13
2022-11-13T00:09:48.357Z,102851.81
2022-11-13T00:12:16.818Z,102859.22
2022-11-13T00:14:44.458Z,102853.34
2022-11-13T00:17:11.366Z,102854.63
2022-11-13T00:19:38.361Z,102858.97
2022-11-13T00:22:05.274Z,102867.44
2022-11-13T00:24:32.241Z,102868.69
2022-11-13T00:26:59.214Z,102866.44
2022-11-13T00:29:27.523Z,102863.19
2022-11-13T00:31:54.621Z,102860.28
2022-11-13T00:37:08.498Z,102860.16
2022-11-13T00:39:35.460Z,102855.53
2022-11-13T00:42:02.483Z,102858.91
2022-11-13T00:44:30.787Z,102853.84
2022-11-13T00:46:57.751Z,102861.34
2022-11-13T00:49:24.748Z,102867.50
2022-11-13T00:51:51.700Z,102864.97
2022-11-13T00:54:18.989Z,102861.63
2022-11-13T00:56:45.944Z,102859.28
2022-11-13T00:59:13.022Z,102856.94
2022-11-13T01:01:41.371Z,102857.50
2022-11-13T01:04:08.351Z,102854.44
2022-11-13T01:06:35.332Z,102854.75
2022-11-13T01:09:02.341Z,102846.41
2022-11-13T01:11:31.235Z,102854.47
2022-11-13T01:13:58.734Z,102851.59
2022-11-13T01:16:27.651Z,102853.13
2022-11-13T01:18:57.031Z,102856.38
2022-11-13T01:21:27.345Z,102851.63
2022-11-13T01:23:55.033Z,102847.59
2022-11-13T01:26:25.895Z,102844.56
2022-11-13T01:28:54.040Z,102838.84
2022-11-13T01:31:24.572Z,102835.09
2022-11-13T01:33:51.972Z,102833.41
2022-11-13T01:36:26.007Z,102829.81
2022-11-13T01:38:53.525Z,102828.13
2022-11-13T01:41:24.819Z,102821.47
2022-11-13T01:43:54.416Z,102818.13
2022-11-13T01:46:26.736Z,102825.09
2022-11-13T01:49:13.166Z,102818.13
2022-11-13T01:51:49.107Z,102811.16
2022-11-13T01:54:22.212Z,102804.91
2022-11-13T01:56:51.168Z,102799.44
2022-11-13T01:59:24.163Z,102796.00
2022-11-13T02:01:51.348Z,102800.44
2022-11-13T02:04:18.407Z,102797.66
2022-11-13T02:06:51.811Z,102786.22
2022-11-13T02:09:23.386Z,102787.91
2022-11-13T02:11:52.151Z,102789.72
2022-11-13T02:14:22.704Z,102787.06
2022-11-13T02:16:56.209Z,102789.72
2022-11-13T02:19:29.728Z,102781.66
2022-11-13T02:22:10.986Z,102781.09
2022-11-13T02:24:45.279Z,102777.59
2022-11-13T02:27:23.084Z,102767.19
2022-11-13T02:29:50.065Z,102768.03
2022-11-13T02:32:17.096Z,102774.97
2022-11-13T02:34:44.071Z,102756.16
2022-11-13T02:37:11.495Z,102769.94
2022-11-13T02:39:40.399Z,102763.66
2022-11-13T02:42:07.331Z,102767.00
2022-11-13T02:44:34.347Z,102761.88
2022-11-13T02:47:01.302Z,102761.03
2022-11-13T02:49:28.218Z,102755.22
2022-11-13T02:51:55.167Z,102751.03
2022-11-13T02:54:22.205Z,102753.25
2022-11-13T02:56:50.524Z,102752.16
2022-11-13T02:59:17.501Z,102747.16
2022-11-13T03:01:44.489Z,102755.38
2022-11-13T03:04:11.459Z,102742.41
2022-11-13T03:06:38.479Z,102753.31
2022-11-13T03:09:05.460Z,102748.97
2022-11-13T03:11:32.446Z,102748.97
2022-11-13T03:14:00.745Z,102735.75
2022-11-13T03:16:28.480Z,102747.31
2022-11-13T03:18:56.328Z,102741.31
2022-11-13T03:21:24.221Z,102732.69
2022-11-13T03:23:51.220Z,102732.00
2022-11-13T03:26:18.326Z,102729.25
2022-11-13T03:28:45.858Z,102724.09
2022-11-13T03:31:14.227Z,102724.09
2022-11-13T03:33:41.569Z,102733.69
2022-11-13T03:36:09.086Z,102723.81
2022-11-13T03:38:36.442Z,102717.41
2022-11-13T03:41:03.954Z,102725.19
2022-11-13T03:43:31.386Z,102721.84
2022-11-13T03:45:58.375Z,102723.81
2022-11-13T03:48:26.939Z,102720.47
2022-11-13T03:50:55.846Z,102724.91
2022-11-13T03:53:22.833Z,102718.53
2022-11-13T03:55:49.857Z,102721.84
2022-11-13T03:58:17.449Z,102726.03
2022-11-13T04:00:45.942Z,102728.81
2022-11-13T04:03:12.902Z,102716.72
2022-11-13T04:05:43.024Z,102718.53
2022-11-13T04:08:10.661Z,102725.47
2022-11-13T04:10:37.641Z,102716.84
2022-11-13T04:13:04.650Z,102719.34
2022-11-13T04:15:31.627Z,102726.97
2022-11-13T04:17:58.643Z,102723.53
2022-11-13T04:20:27.763Z,102721.56
2022-11-13T04:22:56.697Z,102723.22
2022-11-13T04:25:23.874Z,102723.22
2022-11-13T04:27:51.614Z,102718.78
2022-11-13T04:30:19.145Z,102717.66
2022-11-13T04:32:46.110Z,102721.25
2022-11-13T04:35:13.096Z,102711.69
2022-11-13T04:37:40.147Z,102712.66
2022-11-13T04:40:10.942Z,102708.47
2022-11-13T04:42:49.873Z,102716.56
2022-11-13T04:45:18.330Z,102712.66
2022-11-13T04:47:45.340Z,102713.75
2022-11-13T04:50:14.146Z,102709.56
2022-11-13T04:52:41.245Z,102706.81
2022-11-13T04:55:11.532Z,102697.34
2022-11-13T04:57:39.336Z,102695.13
2022-11-13T05:00:09.364Z,102710.59
2022-11-13T05:02:36.639Z,102697.91
2022-11-13T05:05:05.506Z,102700.19
2022-11-13T05:07:32.658Z,102694.31
2022-11-13T05:09:59.641Z,102691.94
2022-11-13T05:12:27.917Z,102692.94
2022-11-13T05:14:54.860Z,102695.69
2022-11-13T05:17:23.118Z,102681.81
2022-11-13T05:19:50.049Z,102682.09
2022-11-13T05:22:16.976Z,102677.22
2022-11-13T05:24:43.897Z,102674.88
2022-11-13T05:27:16.871Z,102670.13
2022-11-13T05:29:45.681Z,102662.63
2022-11-13T05:32:12.717Z,102660.41
2022-11-13T05:34:39.688Z,102657.34
2022-11-13T05:37:06.643Z,102652.34
2022-11-13T05:39:33.560Z,102651.53
2022-11-13T05:42:00.482Z,102648.88
2022-11-13T05:44:27.397Z,102650.41
2022-11-13T05:46:55.688Z,102652.91
2022-11-13T05:49:22.612Z,102657.22
2022-11-13T05:51:49.567Z,102655.28
2022-11-13T05:54:16.573Z,102657.91
2022-11-13T05:56:43.562Z,102659.56
2022-11-13T05:59:10.623Z,102652.34
2022-11-13T06:01:40.482Z,102653.75
2022-11-13T06:04:10.663Z,102653.75
2022-11-13T06:06:37.698Z,102656.50
2022-11-13T06:09:06.649Z,102657.63
2022-11-13T06:11:34.034Z,102657.63
2022-11-13T06:14:01.758Z,102654.97
2022-11-13T06:16:33.918Z,102650.53
2022-11-13T06:19:03.677Z,102643.72
2022-11-13T06:21:35.644Z,102640.97
2022-11-13T06:24:04.050Z,102639.84
2022-11-13T06:26:33.861Z,102636.78
2022-11-13T06:29:03.615Z,102638.31
2022-11-13T06:31:34.761Z,102636.22
2022-11-13T06:34:02.010Z,102630.38
2022-11-13T06:36:33.520Z,102625.53
2022-11-13T06:39:01.042Z,102630.13
2022-11-13T06:41:31.281Z,102626.75
2022-11-13T06:44:02.787Z,102631.34
2022-11-13T06:46:31.419Z,102633.44
2022-11-13T06:48:59.130Z,102631.06
2022-11-13T06:51:28.937Z,102633.84
2022-11-13T06:53:58.314Z,102628.81
2022-11-13T06:56:26.224Z,102632.56
2022-11-13T06:58:55.016Z,102630.09
2022-11-13T07:01:25.406Z,102636.16
2022-11-13T07:03:53.063Z,102633.41
2022-11-13T07:06:24.085Z,102628.13
2022-11-13T07:08:52.379Z,102622.84
2022-11-13T07:11:23.698Z,102619.22
2022-11-13T07:13:51.101Z,102626.19
2022-11-13T07:16:18.693Z,102613.69
2022-11-13T07:18:50.338Z,102614.38
2022-11-13T07:21:17.443Z,102610.63
2022-11-13T07:23:44.497Z,102608.69
2022-11-13T07:26:11.686Z,102604.00
2022-11-13T07:28:40.218Z,102607.31
2022-11-13T07:31:09.336Z,102600.66
2022-11-13T07:33:36.362Z,102607.16
2022-11-13T07:36:03.918Z,102606.19
2022-11-13T07:38:31.987Z,102602.31
2022-11-13T07:40:59.858Z,102612.03
2022-11-13T07:43:27.498Z,102610.94
2022-11-13T07:45:58.493Z,102616.09
2022-11-13T07:48:27.874Z,102610.38
2022-11-13T07:50:59.327Z,102611.91
2022-11-13T07:53:26.275Z,102598.69
2022-11-13T07:55:53.321Z,102602.13
2022-11-13T07:58:20.274Z,102601.41
2022-11-13T08:00:47.412Z,102594.47
2022-11-13T08:03:18.644Z,102605.59
2022-11-13T08:05:45.609Z,102605.63
2022-11-13T08:08:14.567Z,102601.47
2022-11-13T08:10:42.025Z,102596.19
2022-11-13T08:13:10.908Z,102595.94
2022-11-13T08:15:38.689Z,102602.75
2022-11-13T08:18:06.588Z,102599.84
2022-11-13T08:20:34.918Z,102599.69
2022-11-13T08:23:04.218Z,102599.41
2022-11-13T08:25:33.278Z,102603.16
2022-11-13T08:28:00.717Z,102605.81
2022-11-13T08:30:29.000Z,102599.25
2022-11-13T08:32:56.338Z,102598.13
2022-11-13T08:35:29.073Z,102595.88
2022-11-13T08:38:02.196Z,102594.16
2022-11-13T08:40:29.804Z,102593.16
2022-11-13T08:42:59.869Z,102601.06
2022-11-13T08:45:27.337Z,102596.91
2022-11-13T08:47:54.482Z,102597.97
2022-11-13T08:50:21.516Z,102602.69
2022-11-13T08:52:53.276Z,102599.59
2022-11-13T08:55:22.222Z,102602.41
2022-11-13T08:57:49.516Z,102593.19
2022-11-13T09:00:17.964Z,102584.69
2022-11-13T09:02:45.205Z,102590.38
2022-11-13T09:05:12.288Z,102588.25
2022-11-13T09:07:39.259Z,102586.72
2022-11-13T09:10:07.929Z,102583.38
2022-11-13T09:12:36.224Z,102585.59
2022-11-13T09:15:03.416Z,102584.19
2022-11-13T09:17:30.701Z,102584.13
2022-11-13T09:20:03.529Z,102586.88
2022-11-13T09:22:31.069Z,102581.06
2022-11-13T09:24:58.001Z,102569.38
2022-11-13T09:27:24.944Z,102577.53
2022-11-13T09:29:55.684Z,102578.38
2022-11-13T09:32:22.951Z,102582.44
2022-11-13T09:34:49.881Z,102583.41
2022-11-13T09:37:17.023Z,102584.91
2022-11-13T09:39:43.938Z,102579.31
2022-11-13T09:42:18.869Z,102585.16
2022-11-13T09:44:53.596Z,102583.47
2022-11-13T09:47:27.595Z,102580.06
2022-11-13T09:50:02.552Z,102580.56
2022-11-13T09:52:36.859Z,102584.75
2022-11-13T09:55:05.349Z,102594.09
2022-11-13T09:57:42.739Z,102584.81
2022-11-13T10:00:15.247Z,102592.97
2022-11-13T10:02:58.268Z,102587.81
2022-11-13T10:05:43.040Z,102575.94
2022-11-13T10:08:17.971Z,102570.44
2022-11-13T10:10:55.411Z,102569.41
2022-11-13T10:13:38.109Z,102569.78
2022-11-13T10:16:20.838Z,102570.81
2022-11-13T10:18:50.827Z,102571.47
2022-11-13T10:21:32.151Z,102565.50
2022-11-13T10:24:14.388Z,102564.19
2022-11-13T10:26:41.588Z,102561.56
2022-11-13T10:29:13.145Z,102568.53
2022-11-13T10:31:46.969Z,102564.56
2022-11-13T10:34:17.834Z,102561.06
2022-11-13T10:37:03.059Z,102556.28
2022-11-13T10:39:30.042Z,102542.81
2022-11-13T10:41:57.027Z,102544.00
2022-11-13T10:44:32.426Z,102548.47
2022-11-13T10:47:13.573Z,102544.28
2022-11-13T10:49:41.939Z,102536.03
2022-11-13T10:52:19.494Z,102533.84
2022-11-13T10:54:47.333Z,102533.31
2022-11-13T10:57:33.120Z,102539.28
2022-11-13T11:00:00.914Z,102525.00
2022-11-13T11:02:29.039Z,102525.84
2022-11-13T11:05:05.970Z,102524.19
2022-11-13T11:07:41.383Z,102515.22
2022-11-13T11:10:23.006Z,102514.38
2022-11-13T11:12:55.197Z,102505.75
2022-11-13T11:15:28.287Z,102510.22
2022-11-13T11:18:02.374Z,102502.44
2022-11-13T11:20:44.784Z,102495.44
2022-11-13T11:23:24.461Z,102493.09
2022-11-13T11:25:58.339Z,102490.78
2022-11-13T11:28:35.809Z,102488.44
2022-11-13T11:31:12.980Z,102487.41
2022-11-13T11:33:52.663Z,102477.72
2022-11-13T11:36:32.253Z,102475.38
2022-11-13T11:39:20.401Z,102474.00
2022-11-13T11:41:58.458Z,102472.31
2022-11-13T11:44:33.401Z,102468.13
2022-11-13T11:47:00.403Z,102466.44
2022-11-13T11:49:27.520Z,102464.19
2022-11-13T11:52:11.817Z,102466.00
2022-11-13T11:54:43.679Z,102463.44
2022-11-13T11:57:39.504Z,102462.78
2022-11-13T12:00:12.389Z,102473.09
2022-11-13T12:03:24.399Z,102464.81
2022-11-13T12:06:11.697Z,102459.28
2022-11-13T12:08:52.849Z,102461.13
2022-11-13T12:11:29.668Z,102460.31
2022-11-13T12:14:09.372Z,102448.47
2022-11-13T12:16:49.871Z,102447.66
2022-11-13T12:19:31.492Z,102448.13
2022-11-13T12:22:12.484Z,102450.47
2022-11-13T12:25:03.584Z,102443.66
2022-11-13T12:27:38.359Z,102438.53
2022-11-13T12:30:16.321Z,102428.72
2022-11-13T12:33:06.662Z,102429.91
2022-11-13T12:35:34.765Z,102431.19
2022-11-13T12:38:14.075Z,102424.22
2022-11-13T12:40:55.197Z,102423.22
2022-11-13T12:43:51.562Z,102412.25
2022-11-13T12:46:19.196Z,102412.91
2022-11-13T12:48:47.927Z,102410.25
2022-11-13T12:51:17.445Z,102415.75
2022-11-13T12:53:48.400Z,102413.50
2022-11-13T12:56:32.133Z,102410.19
2022-11-13T12:59:33.441Z,102416.44
2022-11-13T13:02:04.614Z,102414.31
2022-11-13T13:05:01.701Z,102405.50
2022-11-13T13:08:04.592Z,102403.59
2022-11-13T13:10:49.506Z,102402.09
2022-11-13T13:13:28.203Z,102404.28
2022-11-13T13:15:58.391Z,102398.94
2022-11-13T13:18:30.333Z,102405.28
2022-11-13T13:21:09.820Z,102400.31
2022-11-13T13:23:39.630Z,102392.88
2022-11-13T13:26:15.919Z,102389.91
2022-11-13T13:28:50.335Z,102390.25
2022-11-13T13:31:37.098Z,102389.31
2022-11-13T13:34:31.098Z,102384.50
2022-11-13T13:37:18.436Z,102380.22
2022-11-13T13:40:02.600Z,102375.59
2022-11-13T13:42:53.090Z,102377.94
2022-11-13T13:45:36.976Z,102370.03
2022-11-13T13:48:11.273Z,102378.53
2022-11-13T13:50:45.051Z,102383.34
2022-11-13T13:53:18.260Z,102380.22
2022-11-13T13:55:50.593Z,102376.44
2022-11-13T13:58:24.940Z,102374.09
2022-11-13T14:01:17.788Z,102362.84
2022-11-13T14:03:45.704Z,102367.81
2022-11-13T14:06:21.292Z,102359.91
2022-11-13T14:08:48.485Z,102371.06
2022-11-13T14:11:19.132Z,102364.91
2022-11-13T14:13:46.195Z,102371.59
2022-11-13T14:16:14.557Z,102360.00
2022-11-13T14:18:42.219Z,102366.66
2022-11-13T14:21:16.502Z,102367.34
2022-11-13T14:23:48.092Z,102365.22
2022-11-13T14:26:15.526Z,102364.88
2022-11-13T14:28:53.682Z,102362.75
2022-11-13T14:31:29.742Z,102366.56
2022-11-13T14:34:00.925Z,102363.25
2022-11-13T14:36:32.027Z,102371.38
2022-11-13T14:38:59.802Z,102369.03
2022-11-13T14:41:34.221Z,102359.44
2022-11-13T14:44:02.109Z,102364.22
2022-11-13T14:46:35.953Z,102367.41
2022-11-13T14:49:03.407Z,102366.91
2022-11-13T14:51:34.041Z,102365.56
2022-11-13T14:54:07.674Z,102371.03
2022-11-13T14:56:38.938Z,102365.41
2022-11-13T14:59:16.982Z,102362.56
2022-11-13T15:01:56.490Z,102363.38
2022-11-13T15:04:24.914Z,102360.72
2022-11-13T15:06:55.633Z,102363.34
2022-11-13T15:09:24.543Z,102363.16
2022-11-13T15:11:51.965Z,102359.50
2022-11-13T15:14:21.202Z,102357.50
2022-11-13T15:16:52.208Z,102350.03
2022-11-13T15:19:30.785Z,102350.53
2022-11-13T15:22:26.682Z,102356.63
2022-11-13T15:24:44.965Z,102342.84
2022-11-13T15:27:16.174Z,102349.91
2022-11-13T15:29:44.478Z,102343.88
2022-11-13T15:32:14.381Z,102348.13
2022-11-13T15:34:43.220Z,102353.13
2022-11-13T15:37:13.052Z,102344.22
2022-11-13T15:39:40.521Z,102344.50
2022-11-13T15:42:14.750Z,102352.78
2022-11-13T15:44:41.749Z,102350.13
2022-11-13T15:47:28.147Z,102354.09
2022-11-13T15:50:12.746Z,102350.75
2022-11-13T15:52:44.381Z,102358.16
2022-11-13T15:55:27.375Z,102360.66
2022-11-13T15:57:55.521Z,102362.81
2022-11-13T16:00:25.397Z,102363.94
2022-11-13T16:02:55.148Z,102360.78
2022-11-13T16:05:25.909Z,102366.41
2022-11-13T16:07:53.947Z,102368.72
2022-11-13T16:10:24.722Z,102365.94
2022-11-13T16:12:52.451Z,102364.06
2022-11-13T16:15:19.858Z,102356.75
2022-11-13T16:17:50.536Z,102363.31
2022-11-13T16:20:18.789Z,102351.75
2022-11-13T16:22:47.294Z,102347.16
2022-11-13T16:25:17.337Z,102340.06
2022-11-13T16:27:45.562Z,102345.03
2022-11-13T16:30:19.912Z,102332.50
2022-11-13T16:32:47.428Z,102341.56
2022-11-13T16:35:16.090Z,102327.91
2022-11-13T16:37:43.184Z,102331.03
2022-11-13T16:40:21.438Z,102327.38
2022-11-13T16:42:48.676Z,102330.09
2022-11-13T16:45:17.357Z,102327.81
2022-11-13T16:47:45.723Z,102324.56
2022-11-13T16:50:16.622Z,102322.94
2022-11-13T16:52:43.605Z,102314.91
2022-11-13T16:55:10.598Z,102306.66
2022-11-13T16:57:39.840Z,102310.03
2022-11-13T17:00:12.010Z,102313.34
2022-11-13T17:02:39.157Z,102308.56
2022-11-13T17:05:06.853Z,102311.88
2022-11-13T17:07:33.916Z,102312.44
2022-11-13T17:10:28.873Z,102300.94
2022-11-13T17:12:54.084Z,102302.66
2022-11-13T17:15:21.642Z,102304.69
2022-11-13T17:17:49.006Z,102299.06
2022-11-13T17:20:19.040Z,102301.03
2022-11-13T17:22:48.452Z,102287.16
2022-11-13T17:25:17.127Z,102287.53
2022-11-13T17:27:44.387Z,102279.59
2022-11-13T17:30:14.325Z,102277.31
2022-11-13T17:32:41.359Z,102279.00
2022-11-13T17:35:12.781Z,102276.06
2022-11-13T17:37:40.076Z,102269.78
2022-11-13T17:40:09.347Z,102278.25
2022-11-13T17:42:36.339Z,102279.75
2022-11-13T17:45:03.816Z,102273.13
2022-11-13T17:47:33.821Z,102269.09
2022-11-13T17:50:06.678Z,102274.38
2022-11-13T17:52:34.589Z,102268.13
2022-11-13T17:55:05.727Z,102273.78
2022-11-13T17:57:33.260Z,102271.50
2022-11-13T18:00:00.222Z,102288.19
2022-11-13T18:02:27.270Z,102281.75
2022-11-13T18:04:58.157Z,102285.50
2022-11-13T18:07:26.390Z,102272.94
2022-11-13T18:09:53.395Z,102275.44
2022-11-13T18:12:20.325Z,102273.88
2022-11-13T18:14:52.190Z,102265.28
2022-11-13T18:17:19.324Z,102268.41
2022-11-13T18:19:46.669Z,102266.00
2022-11-13T18:22:15.305Z,102254.56
2022-11-13T18:24:42.678Z,102255.59
2022-11-13T18:27:10.525Z,102252.78
2022-11-13T18:29:37.503Z,102249.50
2022-11-13T18:32:04.713Z,102253.88
2022-11-13T18:34:32.400Z,102250.56
2022-11-13T18:36:59.499Z,102238.72
2022-11-13T18:39:27.840Z,102246.31
2022-11-13T18:41:58.999Z,102233.09
2022-11-13T18:44:26.219Z,102230.59
2022-11-13T18:46:53.285Z,102236.41
2022-11-13T18:49:20.337Z,102224.66
2022-11-13T18:51:47.287Z,102233.13
2022-11-13T18:54:14.815Z,102231.00
2022-11-13T18:56:43.109Z,102219.44
2022-11-13T18:59:11.027Z,102219.59
2022-11-13T19:01:39.801Z,102220.88
2022-11-13T19:04:22.766Z,102215.94
2022-11-13T19:06:51.041Z,102218.56
2022-11-13T19:09:19.144Z,102216.91
2022-11-13T19:11:47.748Z,102221.53
2022-11-13T19:14:17.587Z,102212.63
2022-11-13T19:16:45.024Z,102213.97
2022-11-13T19:19:18.149Z,102217.31
2022-11-13T19:21:46.247Z,102218.63
2022-11-13T19:24:14.916Z,102211.06
2022-11-13T19:26:43.211Z,102214.03
2022-11-13T19:29:11.933Z,102201.31
2022-11-13T19:31:38.877Z,102195.47
2022-11-13T19:34:08.186Z,102188.19
2022-11-13T19:36:36.635Z,102194.81
2022-11-13T19:39:04.354Z,102193.50
2022-11-13T19:41:31.402Z,102196.13
2022-11-13T19:44:00.122Z,102193.81
2022-11-13T19:46:31.713Z,102199.63
2022-11-13T19:48:58.719Z,102196.50
2022-11-13T19:51:26.601Z,102192.53
2022-11-13T19:53:55.840Z,102187.75
2022-11-13T19:56:24.887Z,102179.63
2022-11-13T19:58:52.786Z,102175.19
2022-11-13T20:01:23.154Z,102176.00
2022-11-13T20:03:56.408Z,102172.34
2022-11-13T20:06:24.338Z,102169.56
2022-11-13T20:08:51.606Z,102170.22
2022-11-13T20:11:18.824Z,102174.66
2022-11-13T20:13:46.243Z,102171.88
2022-11-13T20:16:15.727Z,102173.03
2022-11-13T20:18:44.246Z,102173.03
2022-11-13T20:21:12.886Z,102165.03
2022-11-13T20:23:40.352Z,102170.31
2022-11-13T20:26:13.448Z,102157.41
2022-11-13T20:28:40.641Z,102163.00
2022-11-13T20:31:16.174Z,102164.38
2022-11-13T20:33:43.731Z,102161.38
2022-11-13T20:36:13.397Z,102161.88
2022-11-13T20:38:40.639Z,102157.59
2022-11-13T20:41:10.815Z,102172.84
2022-11-13T20:43:37.994Z,102161.09
2022-11-13T20:46:07.814Z,102160.91
2022-11-13T20:48:35.140Z,102158.03
2022-11-13T20:51:07.422Z,102159.69
2022-11-13T20:53:36.087Z,102158.72
2022-11-13T20:56:03.733Z,102170.16
2022-11-13T20:58:31.622Z,102160.75
2022-11-13T21:01:02.851Z,102160.09
2022-11-13T21:03:29.878Z,102156.13
2022-11-13T21:05:56.859Z,102156.81
2022-11-13T21:08:24.231Z,102153.16
2022-11-13T21:10:52.642Z,102144.06
2022-11-13T21:13:19.718Z,102139.28
2022-11-13T21:15:46.702Z,102146.56
2022-11-13T21:18:13.668Z,102138.13
2022-11-13T21:20:40.705Z,102141.13
2022-11-13T21:23:07.654Z,102133.34
2022-11-13T21:25:34.704Z,102117.13
2022-11-13T21:28:03.875Z,102116.81
2022-11-13T21:30:30.851Z,102106.72
2022-11-13T21:32:59.146Z,102093.00
2022-11-13T21:35:27.185Z,102098.75
2022-11-13T21:37:54.629Z,102106.56
2022-11-13T21:40:22.638Z,102095.63
2022-11-13T21:42:49.539Z,102092.97
2022-11-13T21:45:17.858Z,102082.38
2022-11-13T21:47:44.807Z,102083.06
2022-11-13T21:50:12.170Z,102077.06
2022-11-13T21:52:39.137Z,102080.38
2022-11-13T21:55:07.678Z,102083.34
2022-11-13T21:57:34.633Z,102081.03
2022-11-13T22:00:01.722Z,102071.75
2022-11-13T22:02:30.176Z,102068.09
2022-11-13T22:04:57.197Z,102062.63
2022-11-13T22:07:24.182Z,102059.13
2022-11-13T22:09:51.142Z,102051.88
2022-11-13T22:12:18.125Z,102045.56
2022-11-13T22:14:45.121Z,102039.09
2022-11-13T22:17:12.068Z,102036.25
2022-11-13T22:19:40.414Z,102035.59
2022-11-13T22:22:07.341Z,102040.44
2022-11-13T22:24:34.295Z,102036.28
2022-11-13T22:27:01.250Z,102042.59
2022-11-13T22:29:28.171Z,102038.28
2022-11-13T22:31:55.088Z,102041.59
2022-11-13T22:34:21.999Z,102037.94
2022-11-13T22:36:50.337Z,102043.22
2022-11-13T22:39:17.317Z,102036.63
2022-11-13T22:41:44.221Z,102031.50
2022-11-13T22:44:14.222Z,102034.97
2022-11-13T22:46:41.308Z,102024.72
2022-11-13T22:49:11.297Z,102023.75
2022-11-13T22:51:41.478Z,102019.47
2022-11-13T22:54:12.225Z,102010.53
2022-11-13T22:56:40.999Z,102017.16
2022-11-13T22:59:11.312Z,102007.22
2022-11-13T23:01:40.857Z,102006.72
2022-11-13T23:04:12.783Z,102001.75
2022-11-13T23:06:39.821Z,102002.41
2022-11-13T23:09:06.897Z,101996.63
2022-11-13T23:11:40.051Z,101990.00
2022-11-13T23:14:12.066Z,101999.28
2022-11-13T23:16:39.075Z,101984.03
2022-11-13T23:19:06.015Z,101985.53
2022-11-13T23:21:33.366Z,101981.72
2022-11-13T23:24:00.540Z,101978.09
2022-11-13T23:26:28.406Z,101974.13
2022-11-13T23:28:57.512Z,101968.31
2022-11-13T23:31:24.869Z,101969.16
2022-11-13T23:33:51.885Z,101959.72
2022-11-13T23:36:18.933Z,101957.75
2022-11-13T23:38:46.301Z,101949.97
2022-11-13T23:41:13.497Z,101948.97
2022-11-13T23:44:07.776Z,101950.63
2022-11-13T23:46:29.037Z,101948.66
2022-11-13T23:48:56.354Z,101935.09
2022-11-13T23:51:23.270Z,101934.13
2022-11-13T23:53:50.187Z,101931.47
2022-11-13T23:56:17.089Z,101927.81
2022-11-13T23:58:44.133Z,101926.66
